Airfield :
LOGIN :

Register | Disclaimer

   EN    FR    IT 

 










Legend :    VFR   Marginal VFR   IFR   Intensive IFR   Very Intensive IFR
Visi :
Ceiling :
>= 8 km
>= 3000ft
5 to 8 km
1000 to 3000 ft
1500m to 5 km
500 to 1000 ft
800 to 1500m
200 to 500 ft
< 800m
< 200 ft
Symbols :   Thunderstorms  Fog  Heavy snow  Heavy precipitations  Wind > 20 kt
SIGMETs :     Misc.  Thunderstorms  Icing  Turbulence  Mountain Waves  Volcanic Ashes







- Airport Elevation : 1682 ft
- IATA code : VIT


LEVT - Vitoria Gasteiz

CURRENT METAR :
  • 260930Z 32005KT 290V350 9000 4000SE BCFG FEW014 BKN020 12/10 Q1023

EXPIRED METARs :
  • 260900Z VRB02KT 9999 FEW012 BKN017 BKN023 12/10 Q1023
  • 260830Z VRB02KT 9999 BKN017 BKN025 12/09 Q1023
  • 260800Z VRB02KT 9999 BKN012 BKN024 12/10 Q1023
  • 260730Z 00000KT 9999 SCT014 BKN040 12/10 Q1023
  • 260700Z 00000KT 9000 SCT027 BKN034 BKN044 11/09 Q1023

TAF TAF LEVT
Valid from the 26 at 06:00 until the 27 at 06:00 UTC


260500Z 2606/2706 VRB04KT 9000 SCT012 BKN025 TX12/2615Z TN08/2706Z
TEMPO 2606/2706 BKN012
TEMPO 2606/2618 3000 -DZ BR BKN008
PROB40
TEMPO 2606/2612 1500 DZ BR BKN003
PROB30
TEMPO 2606/2610 0350 FG BKN001
BECMG 2608/2612 34010KT
BECMG 2619/2621 VRB06KT
PROB40
TEMPO 2702/2706 3000 BR BCFG BKN005
No reported NOTAMs for that airfield.



MET'MAP, your aeronautical weather chart ! - Copyright ORBIFLY December 2007 - Disclaimer

ORBIFLY MET'MAP TEAM :

Programming & Development : Alexandra Zaïnal
Concept & Development : Baudouin d'Aumeries
Co-Development & Prog : Marc-Olivier Méhu
Technical & hardware support : Manuel Goepfert

Contact : metmap@orbifly.com




SOURCES & CREDITS :

   NOAA